createdAt,value
2019-05-30T00:00:50.374Z,15.6
2019-05-30T00:02:50.407Z,17.3
2019-05-30T00:04:49.905Z,15.1
2019-05-30T00:06:50.324Z,15.1
2019-05-30T00:08:50.406Z,15.0
2019-05-30T00:10:49.438Z,15.0
2019-05-30T00:12:49.483Z,14.0
2019-05-30T00:14:49.536Z,14.0
2019-05-30T00:16:49.742Z,15.0
2019-05-30T00:18:49.876Z,14.9
2019-05-30T00:20:50.003Z,14.9
2019-05-30T00:22:50.156Z,15.3
2019-05-30T00:24:50.258Z,15.2
2019-05-30T00:26:49.580Z,15.8
2019-05-30T00:28:49.720Z,15.8
2019-05-30T00:30:49.766Z,15.8
2019-05-30T00:32:49.751Z,14.2
2019-05-30T00:34:50.327Z,15.0
2019-05-30T00:36:49.475Z,15.0
2019-05-30T00:38:49.611Z,14.7
2019-05-30T00:40:49.767Z,14.2
2019-05-30T00:42:49.840Z,14.2
2019-05-30T00:44:49.926Z,14.4
2019-05-30T00:46:50.187Z,14.4
2019-05-30T00:48:50.390Z,15.2
2019-05-30T00:50:49.616Z,14.4
2019-05-30T00:52:49.676Z,14.9
2019-05-30T00:54:50.029Z,14.9
2019-05-30T00:56:50.277Z,15.1
2019-05-30T00:58:50.319Z,15.7
2019-05-30T01:00:50.359Z,15.7
2019-05-30T01:02:49.608Z,15.5
2019-05-30T01:04:50.216Z,15.5
2019-05-30T01:06:50.340Z,16.0
2019-05-30T01:08:49.475Z,15.9
2019-05-30T01:10:49.555Z,15.4
2019-05-30T01:12:49.673Z,15.5
2019-05-30T01:14:49.857Z,15.5
2019-05-30T01:16:50.036Z,15.9
2019-05-30T01:18:50.214Z,15.9
2019-05-30T01:20:50.409Z,15.3
2019-05-30T01:22:49.640Z,15.7
2019-05-30T01:24:49.913Z,15.7
2019-05-30T01:26:50.367Z,15.1
2019-05-30T01:28:49.475Z,14.9
2019-05-30T01:30:59.314Z,16.2
2019-05-30T01:32:50.330Z,15.5
2019-05-30T01:34:50.009Z,15.5
2019-05-30T01:36:50.187Z,15.2
2019-05-30T01:38:50.363Z,15.3
2019-05-30T01:40:49.573Z,14.6
2019-05-30T01:42:49.655Z,14.6
2019-05-30T01:44:49.881Z,14.3
2019-05-30T01:46:50.120Z,15.0
2019-05-30T01:48:50.235Z,15.1
2019-05-30T01:50:50.189Z,15.3
2019-05-30T01:52:50.277Z,15.3
2019-05-30T01:54:50.311Z,14.3
2019-05-30T01:56:49.467Z,15.7
2019-05-30T01:58:49.508Z,15.2
2019-05-30T02:00:49.456Z,15.2
2019-05-30T02:02:49.575Z,14.8
2019-05-30T02:04:50.111Z,14.7
2019-05-30T02:06:50.320Z,13.8
2019-05-30T02:08:50.148Z,13.8
2019-05-30T02:10:50.270Z,14.2
2019-05-30T02:12:50.333Z,14.9
2019-05-30T02:14:49.530Z,14.9
2019-05-30T02:16:49.871Z,14.4
2019-05-30T02:18:50.010Z,15.5
2019-05-30T02:20:50.286Z,16.0
2019-05-30T02:22:50.320Z,16.0
2019-05-30T02:24:50.424Z,15.6
2019-05-30T02:26:49.691Z,16.0
2019-05-30T02:28:49.813Z,15.8
2019-05-30T02:30:49.962Z,16.5
2019-05-30T02:32:50.048Z,16.5
2019-05-30T02:34:49.720Z,16.3
2019-05-30T02:36:50.026Z,16.4
2019-05-30T02:38:50.150Z,16.3
2019-05-30T02:40:50.320Z,16.3
2019-05-30T02:42:50.414Z,16.4
2019-05-30T02:44:49.426Z,16.4
2019-05-30T02:46:49.727Z,16.3
2019-05-30T02:48:58.579Z,16.5
2019-05-30T02:50:49.478Z,15.9
2019-05-30T02:52:49.605Z,15.9
2019-05-30T02:54:49.734Z,16.2
2019-05-30T02:56:49.992Z,16.0
2019-05-30T02:58:50.074Z,17.6
2019-05-30T03:00:50.136Z,17.6
2019-05-30T03:02:50.206Z,16.5
2019-05-30T03:04:49.779Z,17.1
2019-05-30T03:06:50.060Z,17.6
2019-05-30T03:08:50.144Z,17.9
2019-05-30T03:10:50.286Z,17.9
2019-05-30T03:12:50.330Z,16.9
2019-05-30T03:14:49.552Z,17.3
2019-05-30T03:16:49.767Z,17.3
2019-05-30T03:18:49.938Z,16.4
2019-05-30T03:20:50.117Z,16.4
2019-05-30T03:22:50.141Z,17.2
2019-05-30T03:24:50.311Z,16.5
2019-05-30T03:26:49.475Z,16.9
2019-05-30T03:28:53.316Z,16.9
2019-05-30T03:30:49.910Z,17.3
2019-05-30T03:33:03.191Z,16.5
2019-05-30T03:34:50.023Z,16.8
2019-05-30T03:36:49.505Z,16.8
2019-05-30T03:38:49.684Z,16.7
2019-05-30T03:40:49.825Z,15.9
2019-05-30T03:42:49.891Z,17.0
2019-05-30T03:44:50.109Z,16.2
2019-05-30T03:46:50.309Z,16.2
2019-05-30T03:48:50.362Z,15.8
2019-05-30T03:50:49.494Z,15.8
2019-05-30T03:52:49.623Z,15.9
2019-05-30T03:54:49.776Z,15.9
2019-05-30T03:56:50.142Z,15.0
2019-05-30T03:58:50.276Z,15.0
2019-05-30T04:00:51.041Z,14.3
2019-05-30T04:02:56.948Z,13.8
2019-05-30T04:04:50.233Z,15.3
2019-05-30T04:06:50.314Z,15.0
2019-05-30T04:08:50.407Z,15.0
2019-05-30T04:10:49.589Z,14.3
2019-05-30T04:12:49.900Z,14.0
2019-05-30T04:14:50.128Z,13.9
2019-05-30T04:16:50.282Z,13.8
2019-05-30T04:18:50.345Z,13.8
2019-05-30T04:20:49.564Z,14.5
2019-05-30T04:22:49.680Z,13.4
2019-05-30T04:24:49.810Z,13.3
2019-05-30T04:26:50.275Z,13.3
2019-05-30T04:28:50.435Z,12.8
2019-05-30T04:30:49.532Z,12.6
2019-05-30T04:32:49.642Z,12.4
2019-05-30T04:34:50.177Z,12.9
2019-05-30T04:36:53.080Z,12.9
2019-05-30T04:38:50.043Z,12.4
2019-05-30T04:40:50.122Z,12.4
2019-05-30T04:42:50.210Z,12.4
2019-05-30T04:44:49.481Z,12.4
2019-05-30T04:46:49.861Z,12.4
2019-05-30T04:48:49.978Z,12.2
2019-05-30T04:50:50.044Z,11.9
2019-05-30T04:52:50.135Z,11.9
2019-05-30T04:54:50.244Z,11.5
2019-05-30T04:56:49.494Z,11.5
2019-05-30T04:58:49.554Z,11.3
2019-05-30T05:00:49.693Z,14.8
2019-05-30T05:02:49.772Z,10.6
2019-05-30T05:04:50.153Z,10.3
2019-05-30T05:06:49.540Z,10.3
2019-05-30T05:08:49.655Z,9.9
2019-05-30T05:10:49.788Z,9.8
2019-05-30T05:12:49.879Z,9.2
2019-05-30T05:14:49.949Z,9.2
2019-05-30T05:16:50.170Z,8.9
2019-05-30T05:18:50.263Z,8.7
2019-05-30T05:20:50.392Z,8.8
2019-05-30T05:22:49.516Z,8.9
2019-05-30T05:24:49.553Z,8.9
2019-05-30T05:26:49.759Z,9.2
2019-05-30T05:28:49.896Z,9.2
2019-05-30T05:30:49.948Z,10.0
2019-05-30T05:32:50.146Z,10.0
2019-05-30T05:34:52.004Z,11.1
2019-05-30T05:36:50.239Z,11.6
2019-05-30T05:38:50.319Z,11.0
2019-05-30T05:40:49.775Z,11.0
2019-05-30T05:42:49.911Z,11.6
2019-05-30T05:44:49.957Z,11.6
2019-05-30T05:46:50.282Z,12.1
2019-05-30T05:48:50.285Z,12.1
2019-05-30T05:50:50.324Z,11.6
2019-05-30T05:52:50.350Z,10.4
2019-05-30T05:54:49.443Z,10.4
2019-05-30T05:56:49.598Z,11.0
2019-05-30T05:58:49.696Z,10.9
2019-05-30T06:00:49.782Z,10.7
2019-05-30T06:02:49.795Z,10.7
2019-05-30T06:04:50.276Z,10.8
2019-05-30T06:06:49.468Z,9.8
2019-05-30T06:08:49.472Z,10.6
2019-05-30T06:10:49.551Z,10.0
2019-05-30T06:12:49.642Z,10.0
2019-05-30T06:14:49.766Z,9.4
2019-05-30T06:16:49.989Z,11.0
2019-05-30T06:18:50.216Z,10.0
2019-05-30T06:20:50.243Z,9.7
2019-05-30T06:22:50.397Z,9.7
2019-05-30T06:24:49.504Z,10.4
2019-05-30T06:26:49.758Z,9.3
2019-05-30T06:28:49.843Z,9.5
2019-05-30T06:30:49.873Z,9.7
2019-05-30T06:32:49.991Z,9.7
2019-05-30T06:34:49.745Z,9.4
2019-05-30T06:36:49.945Z,9.9
2019-05-30T06:38:50.137Z,9.9
2019-05-30T06:40:50.212Z,10.3
2019-05-30T06:42:50.297Z,10.3
2019-05-30T06:44:50.357Z,9.4
2019-05-30T06:46:49.555Z,9.1
2019-05-30T06:48:49.550Z,9.2
2019-05-30T06:50:49.648Z,9.2
2019-05-30T06:52:49.738Z,8.9
2019-05-30T06:54:49.765Z,9.2
2019-05-30T06:56:50.065Z,9.0
2019-05-30T06:58:50.081Z,8.2
2019-05-30T07:00:50.140Z,8.2
2019-05-30T07:02:50.216Z,8.5
2019-05-30T07:04:52.253Z,7.9
2019-05-30T07:06:49.826Z,7.9
2019-05-30T07:08:49.783Z,8.1
2019-05-30T07:10:49.873Z,8.1
2019-05-30T07:12:49.958Z,7.6
2019-05-30T07:14:50.026Z,7.6
2019-05-30T07:16:50.139Z,7.2
2019-05-30T07:18:50.224Z,7.2
2019-05-30T07:20:50.366Z,7.4
2019-05-30T07:22:49.449Z,7.8
2019-05-30T07:24:49.612Z,8.0
2019-05-30T07:26:49.968Z,7.7
2019-05-30T07:28:50.081Z,7.7
2019-05-30T07:30:50.285Z,7.9
2019-05-30T07:32:50.309Z,8.3
2019-05-30T07:35:03.346Z,8.3
2019-05-30T07:36:50.346Z,7.8
2019-05-30T07:38:49.434Z,7.8
2019-05-30T07:40:49.595Z,9.3
2019-05-30T07:42:49.731Z,8.1
2019-05-30T07:44:49.811Z,8.1
2019-05-30T07:46:50.032Z,7.8
2019-05-30T07:48:50.154Z,7.8
2019-05-30T07:50:50.237Z,7.2
2019-05-30T07:52:50.269Z,7.3
2019-05-30T07:54:50.351Z,6.8
2019-05-30T07:56:49.447Z,6.6
2019-05-30T07:58:49.450Z,6.6
2019-05-30T08:00:49.501Z,4.9
2019-05-30T08:02:49.697Z,5.1
2019-05-30T08:04:50.273Z,5.1
2019-05-30T08:06:49.766Z,5.1
2019-05-30T08:08:49.800Z,5.7
2019-05-30T08:10:49.946Z,6.9
2019-05-30T08:12:50.006Z,6.9
2019-05-30T08:14:50.185Z,6.9
2019-05-30T08:16:49.437Z,6.1
2019-05-30T08:18:49.623Z,6.1
2019-05-30T08:20:49.592Z,6.3
2019-05-30T08:22:49.710Z,6.9
2019-05-30T08:24:49.788Z,6.9
2019-05-30T08:26:50.032Z,5.8
2019-05-30T08:28:50.229Z,5.4
2019-05-30T08:30:50.296Z,6.3
2019-05-30T08:32:50.351Z,3.4
2019-05-30T08:34:50.003Z,4.9
2019-05-30T08:36:50.172Z,4.9
2019-05-30T08:38:50.297Z,2.6
2019-05-30T08:40:50.396Z,3.0
2019-05-30T08:42:50.423Z,5.9
2019-05-30T08:44:49.619Z,2.9
2019-05-30T08:46:49.957Z,3.1
2019-05-30T08:48:50.128Z,3.1
2019-05-30T08:50:50.228Z,2.9
2019-05-30T08:52:50.382Z,2.9
2019-05-30T08:54:49.541Z,3.2
2019-05-30T08:56:50.028Z,3.2
2019-05-30T08:58:50.157Z,2.7
2019-05-30T09:00:50.240Z,3.9
2019-05-30T09:02:50.368Z,5.1
2019-05-30T09:04:49.801Z,3.2
2019-05-30T09:06:49.945Z,3.2
2019-05-30T09:08:50.015Z,3.5
2019-05-30T09:10:50.142Z,3.1
2019-05-30T09:12:50.318Z,3.2
2019-05-30T09:14:49.430Z,3.2
2019-05-30T09:16:51.044Z,3.7
2019-05-30T09:18:49.678Z,3.3
2019-05-30T09:20:49.816Z,4.0
2019-05-30T09:22:49.920Z,4.1
2019-05-30T09:24:50.052Z,4.1
2019-05-30T09:26:50.455Z,3.2
2019-05-30T09:28:49.588Z,3.3
2019-05-30T09:30:49.727Z,3.8
2019-05-30T09:32:49.763Z,3.8
2019-05-30T09:34:50.370Z,3.9
2019-05-30T09:36:49.537Z,3.9
2019-05-30T09:38:49.775Z,5.2
2019-05-30T09:40:49.872Z,2.6
2019-05-30T09:42:50.349Z,3.2
2019-05-30T09:44:50.870Z,3.2
2019-05-30T09:46:50.523Z,2.9
2019-05-30T09:48:51.174Z,2.5
2019-05-30T09:50:51.112Z,2.5
2019-05-30T09:52:51.283Z,2.5
2019-05-30T09:54:50.298Z,2.9
2019-05-30T09:56:50.627Z,2.9
2019-05-30T09:58:50.357Z,2.9
2019-05-30T10:00:50.406Z,2.9
2019-05-30T10:02:50.591Z,3.8
2019-05-30T10:04:50.402Z,2.9
2019-05-30T10:06:50.496Z,2.6
2019-05-30T10:08:50.105Z,2.6
2019-05-30T10:10:51.335Z,3.0
2019-05-30T10:12:50.304Z,2.7
2019-05-30T10:14:50.548Z,2.7
2019-05-30T10:16:53.283Z,2.9
2019-05-30T10:18:50.759Z,3.3
2019-05-30T10:20:51.907Z,2.9
2019-05-30T10:22:50.739Z,3.1
2019-05-30T10:24:51.089Z,3.1
2019-05-30T10:26:49.690Z,2.6
2019-05-30T10:28:51.318Z,2.2
2019-05-30T10:30:53.531Z,2.8
2019-05-30T10:32:50.261Z,2.8
2019-05-30T10:34:51.537Z,2.8
2019-05-30T10:36:50.328Z,2.5
2019-05-30T10:38:50.390Z,2.7
2019-05-30T10:40:50.461Z,2.2
2019-05-30T10:42:51.219Z,2.2
2019-05-30T10:44:51.057Z,2.5
2019-05-30T10:46:50.961Z,2.2
2019-05-30T10:48:50.835Z,2.2
2019-05-30T10:50:50.448Z,2.1
2019-05-30T10:52:50.006Z,2.1
2019-05-30T10:54:51.434Z,2.0
2019-05-30T10:56:49.957Z,2.6
2019-05-30T10:58:50.723Z,2.5
2019-05-30T11:00:50.841Z,2.0
2019-05-30T11:02:51.062Z,2.0
2019-05-30T11:04:50.646Z,1.9
2019-05-30T11:07:02.537Z,2.3
2019-05-30T11:08:50.599Z,1.9
2019-05-30T11:10:50.586Z,1.9
2019-05-30T11:12:55.420Z,1.9
2019-05-30T11:14:50.175Z,1.9
2019-05-30T11:16:50.311Z,2.2
2019-05-30T11:18:51.332Z,2.1
2019-05-30T11:20:50.109Z,2.0
2019-05-30T11:22:50.159Z,2.0
2019-05-30T11:24:50.380Z,2.0
2019-05-30T11:26:50.896Z,2.0
2019-05-30T11:28:50.470Z,2.2
2019-05-30T11:30:50.593Z,2.2
2019-05-30T11:32:50.880Z,2.1
2019-05-30T11:34:51.058Z,1.7
2019-05-30T11:36:49.435Z,1.8
2019-05-30T11:38:51.984Z,1.7
2019-05-30T11:40:51.282Z,1.7
2019-05-30T11:42:49.481Z,5.6
2019-05-30T11:44:49.867Z,1.8
2019-05-30T11:46:49.473Z,2.4
2019-05-30T11:48:49.575Z,1.8
2019-05-30T11:50:50.708Z,1.8
2019-05-30T11:52:49.803Z,1.5
2019-05-30T11:54:49.981Z,2.3
2019-05-30T11:56:50.159Z,2.6
2019-05-30T11:58:50.159Z,1.8
2019-05-30T12:00:50.282Z,1.8
2019-05-30T12:02:50.171Z,1.6
2019-05-30T12:04:50.489Z,1.9
2019-05-30T12:06:50.987Z,1.6
2019-05-30T12:08:50.603Z,1.6
2019-05-30T12:10:51.006Z,1.9
2019-05-30T12:12:51.080Z,1.7
2019-05-30T12:14:51.222Z,1.7
2019-05-30T12:16:51.097Z,2.0
2019-05-30T12:18:51.314Z,2.0
2019-05-30T12:20:49.524Z,2.5
2019-05-30T12:22:49.660Z,1.8
2019-05-30T12:24:49.786Z,2.0
2019-05-30T12:26:50.281Z,1.9
2019-05-30T12:28:49.711Z,1.9
2019-05-30T12:30:56.377Z,2.5
2019-05-30T12:32:49.434Z,2.8
2019-05-30T12:34:50.143Z,1.6
2019-05-30T12:36:49.446Z,1.6
2019-05-30T12:38:49.550Z,1.6
2019-05-30T12:40:49.573Z,1.9
2019-05-30T12:42:49.753Z,1.9
2019-05-30T12:44:50.123Z,1.7
2019-05-30T12:46:50.404Z,1.8
2019-05-30T12:48:49.542Z,1.8
2019-05-30T12:50:49.669Z,1.7
2019-05-30T12:52:49.801Z,1.7
2019-05-30T12:54:49.858Z,1.7
2019-05-30T12:56:50.079Z,1.9
2019-05-30T12:58:50.178Z,1.9
2019-05-30T13:00:50.242Z,2.2
2019-05-30T13:02:50.346Z,1.7
2019-05-30T13:04:49.886Z,2.8
2019-05-30T13:06:53.222Z,2.8
2019-05-30T13:08:50.232Z,1.7
2019-05-30T13:10:50.337Z,1.7
2019-05-30T13:12:49.496Z,1.7
2019-05-30T13:14:49.677Z,2.0
2019-05-30T13:16:49.973Z,2.5
2019-05-30T13:18:50.127Z,1.9
2019-05-30T13:20:50.292Z,1.8
2019-05-30T13:22:50.342Z,1.9
2019-05-30T13:24:49.477Z,1.9
2019-05-30T13:26:49.724Z,1.8
2019-05-30T13:28:49.768Z,1.8
2019-05-30T13:30:49.849Z,1.6
2019-05-30T13:32:50.128Z,1.9
2019-05-30T13:34:49.668Z,1.9
2019-05-30T13:36:49.958Z,2.3
2019-05-30T13:38:50.001Z,1.8
2019-05-30T13:40:50.124Z,1.8
2019-05-30T13:42:50.271Z,2.2
2019-05-30T13:44:50.325Z,2.2
2019-05-30T13:46:49.645Z,1.7
2019-05-30T13:48:49.754Z,2.3
2019-05-30T13:50:50.014Z,2.3
2019-05-30T13:52:50.177Z,2.9
2019-05-30T13:54:50.250Z,2.9
2019-05-30T13:56:50.455Z,2.0
2019-05-30T13:58:49.485Z,1.6
2019-05-30T14:00:49.676Z,1.6
2019-05-30T14:02:49.727Z,1.8
2019-05-30T14:04:50.223Z,1.8
2019-05-30T14:06:50.453Z,1.7
2019-05-30T14:08:50.726Z,1.4
2019-05-30T14:10:49.961Z,1.6
2019-05-30T14:12:50.032Z,1.6
2019-05-30T14:14:50.205Z,2.6
2019-05-30T14:16:50.355Z,1.6
2019-05-30T14:18:49.489Z,1.7
2019-05-30T14:20:49.543Z,1.7
2019-05-30T14:22:49.830Z,1.7
2019-05-30T14:24:49.935Z,2.0
2019-05-30T14:26:50.122Z,2.1
2019-05-30T14:28:50.217Z,2.1
2019-05-30T14:30:50.245Z,2.1
2019-05-30T14:32:49.656Z,1.5
2019-05-30T14:34:50.002Z,1.6
2019-05-30T14:36:50.186Z,2.1
2019-05-30T14:38:58.122Z,1.7
2019-05-30T14:40:50.209Z,1.7
2019-05-30T14:42:49.420Z,1.7
2019-05-30T14:44:50.564Z,1.5
2019-05-30T14:46:50.031Z,2.3
2019-05-30T14:48:50.131Z,3.5
2019-05-30T14:50:50.310Z,1.6
2019-05-30T14:52:50.393Z,1.6
2019-05-30T14:54:49.431Z,2.1
2019-05-30T14:56:49.781Z,1.4
2019-05-30T14:58:49.950Z,1.4
2019-05-30T15:00:50.015Z,2.5
2019-05-30T15:02:50.077Z,2.5
2019-05-30T15:04:49.768Z,1.7
2019-05-30T15:06:50.037Z,1.6
2019-05-30T15:08:50.116Z,1.5
2019-05-30T15:10:50.190Z,3.0
2019-05-30T15:12:50.237Z,3.0
2019-05-30T15:14:50.355Z,1.5
2019-05-30T15:16:49.620Z,1.9
2019-05-30T15:18:49.723Z,1.6
2019-05-30T15:20:49.857Z,1.6
2019-05-30T15:22:49.884Z,1.7
2019-05-30T15:24:49.925Z,1.6
2019-05-30T15:26:50.089Z,1.6
2019-05-30T15:28:50.159Z,1.6
2019-05-30T15:30:50.288Z,1.8
2019-05-30T15:32:50.350Z,2.6
2019-05-30T15:34:49.915Z,1.6
2019-05-30T15:36:50.205Z,1.6
2019-05-30T15:38:50.296Z,1.6
2019-05-30T15:40:49.524Z,3.1
2019-05-30T15:42:53.006Z,1.6
2019-05-30T15:44:50.351Z,1.4
2019-05-30T15:46:49.501Z,1.7
2019-05-30T15:48:49.645Z,1.7
2019-05-30T15:50:49.798Z,1.2
2019-05-30T15:52:49.860Z,1.6
2019-05-30T15:54:50.099Z,4.6
2019-05-30T15:56:50.366Z,1.5
2019-05-30T15:58:49.447Z,1.5
2019-05-30T16:00:49.553Z,1.4
2019-05-30T16:02:49.869Z,1.7
2019-05-30T16:04:49.471Z,1.5
2019-05-30T16:06:49.723Z,1.5
2019-05-30T16:08:49.830Z,1.6
2019-05-30T16:10:49.974Z,1.3
2019-05-30T16:12:50.088Z,2.1
2019-05-30T16:14:50.240Z,1.3
2019-05-30T16:16:49.464Z,3.0
2019-05-30T16:18:49.503Z,3.0
2019-05-30T16:20:49.652Z,1.5
2019-05-30T16:22:49.717Z,1.7
2019-05-30T16:24:49.805Z,1.4
2019-05-30T16:26:50.082Z,1.4
2019-05-30T16:28:50.158Z,1.5
2019-05-30T16:30:50.317Z,1.6
2019-05-30T16:32:50.354Z,1.4
2019-05-30T16:34:50.170Z,1.5
2019-05-30T16:36:50.258Z,1.5
2019-05-30T16:38:50.423Z,1.2
2019-05-30T16:40:50.432Z,1.4
2019-05-30T16:42:49.615Z,1.4
2019-05-30T16:44:49.613Z,1.6
2019-05-30T16:46:49.849Z,1.7
2019-05-30T16:48:49.970Z,1.7
2019-05-30T16:50:50.092Z,1.6
2019-05-30T16:52:50.187Z,2.1
2019-05-30T16:54:50.332Z,1.6
2019-05-30T16:56:49.602Z,1.6
2019-05-30T16:58:49.694Z,1.9
2019-05-30T17:00:49.805Z,1.6
2019-05-30T17:02:49.935Z,2.2
2019-05-30T17:04:49.586Z,2.2
2019-05-30T17:06:49.773Z,2.2
2019-05-30T17:08:49.816Z,1.5
2019-05-30T17:10:49.962Z,1.6
2019-05-30T17:12:50.068Z,1.5
2019-05-30T17:14:50.236Z,1.5
2019-05-30T17:16:49.617Z,1.5
2019-05-30T17:18:49.749Z,1.5
2019-05-30T17:20:49.967Z,1.6
2019-05-30T17:22:50.080Z,1.9
2019-05-30T17:24:50.171Z,1.4
2019-05-30T17:26:51.890Z,1.4
2019-05-30T17:28:50.221Z,1.6
2019-05-30T17:30:50.296Z,1.7
2019-05-30T17:32:50.313Z,1.4
2019-05-30T17:34:50.079Z,1.4
2019-05-30T17:36:50.313Z,1.5
2019-05-30T17:38:50.363Z,1.8
2019-05-30T17:40:49.680Z,2.5
2019-05-30T17:42:49.890Z,2.5
2019-05-30T17:44:49.951Z,1.7
2019-05-30T17:46:50.263Z,1.6
2019-05-30T17:48:50.338Z,1.6
2019-05-30T17:50:50.423Z,1.7
2019-05-30T17:52:49.460Z,2.2
2019-05-30T17:54:49.566Z,1.8
2019-05-30T17:56:49.869Z,1.8
2019-05-30T17:58:50.012Z,1.6
2019-05-30T18:00:50.174Z,1.7
2019-05-30T18:02:50.337Z,1.8
2019-05-30T18:04:50.020Z,1.8
2019-05-30T18:06:50.234Z,1.6
2019-05-30T18:08:50.331Z,1.8
2019-05-30T18:10:53.517Z,1.9
2019-05-30T18:12:50.351Z,1.6
2019-05-30T18:14:50.406Z,1.6
2019-05-30T18:16:49.543Z,2.0
2019-05-30T18:18:49.659Z,2.0
2019-05-30T18:20:49.691Z,1.6
2019-05-30T18:22:49.761Z,1.7
2019-05-30T18:24:49.867Z,1.7
2019-05-30T18:26:50.007Z,1.7
2019-05-30T18:28:50.196Z,2.7
2019-05-30T18:30:50.303Z,1.7
2019-05-30T18:32:49.494Z,1.7
2019-05-30T18:34:50.030Z,1.9
2019-05-30T18:36:50.328Z,2.2
2019-05-30T18:38:50.456Z,1.6
2019-05-30T18:40:49.562Z,2.7
2019-05-30T18:42:49.709Z,2.7
2019-05-30T18:44:49.776Z,2.4
2019-05-30T18:46:50.005Z,1.8
2019-05-30T18:48:50.055Z,1.7
2019-05-30T18:50:50.125Z,1.7
2019-05-30T18:52:50.243Z,1.7
2019-05-30T18:54:50.431Z,2.0
2019-05-30T18:56:49.538Z,1.8
2019-05-30T18:58:49.637Z,2.1
2019-05-30T19:00:49.693Z,2.3
2019-05-30T19:02:49.666Z,2.3
2019-05-30T19:04:50.134Z,2.0
2019-05-30T19:06:50.319Z,2.1
2019-05-30T19:08:50.389Z,2.0
2019-05-30T19:10:49.526Z,2.0
2019-05-30T19:12:49.667Z,2.0
2019-05-30T19:14:49.704Z,2.1
2019-05-30T19:16:49.934Z,1.9
2019-05-30T19:18:50.075Z,2.3
2019-05-30T19:20:50.034Z,2.3
2019-05-30T19:22:50.087Z,2.0
2019-05-30T19:24:50.169Z,1.9
2019-05-30T19:26:50.413Z,1.9
2019-05-30T19:28:49.498Z,3.3
2019-05-30T19:30:49.576Z,3.3
2019-05-30T19:32:49.591Z,2.5
2019-05-30T19:34:50.129Z,2.4
2019-05-30T19:36:50.283Z,2.6
2019-05-30T19:38:50.371Z,2.6
2019-05-30T19:40:50.543Z,2.3
2019-05-30T19:42:49.644Z,3.2
2019-05-30T19:44:49.729Z,2.5
2019-05-30T19:46:49.991Z,2.3
2019-05-30T19:48:50.081Z,2.3
2019-05-30T19:50:50.212Z,2.4
2019-05-30T19:52:50.398Z,2.4
2019-05-30T19:54:49.544Z,2.3
2019-05-30T19:56:49.999Z,2.3
2019-05-30T19:58:50.147Z,2.0
2019-05-30T20:00:57.731Z,2.2
2019-05-30T20:02:50.274Z,2.2
2019-05-30T20:04:49.853Z,2.2
2019-05-30T20:06:50.127Z,4.5
2019-05-30T20:08:55.295Z,2.4
2019-05-30T20:10:50.209Z,2.4
2019-05-30T20:12:50.329Z,3.3
2019-05-30T20:14:50.407Z,3.0
2019-05-30T20:16:49.536Z,2.4
2019-05-30T20:18:49.666Z,2.4
2019-05-30T20:20:56.318Z,2.9
2019-05-30T20:22:50.319Z,2.8
2019-05-30T20:24:50.377Z,2.5
2019-05-30T20:26:49.682Z,2.5
2019-05-30T20:28:49.701Z,2.4
2019-05-30T20:30:49.796Z,2.3
2019-05-30T20:32:49.952Z,2.6
2019-05-30T20:34:49.488Z,2.8
2019-05-30T20:36:49.790Z,2.8
2019-05-30T20:38:49.873Z,2.3
2019-05-30T20:40:50.075Z,2.3
2019-05-30T20:42:50.163Z,2.5
2019-05-30T20:44:50.191Z,2.6
2019-05-30T20:46:49.455Z,2.4
2019-05-30T20:48:49.488Z,2.4
2019-05-30T20:50:49.585Z,2.6
2019-05-30T20:52:49.666Z,4.8
2019-05-30T20:54:49.660Z,2.6
2019-05-30T20:56:50.620Z,2.6
2019-05-30T20:58:50.095Z,2.6
2019-05-30T21:00:50.156Z,2.6
2019-05-30T21:02:50.213Z,2.2
2019-05-30T21:04:49.815Z,2.2
2019-05-30T21:06:50.060Z,2.3
2019-05-30T21:08:50.244Z,2.3
2019-05-30T21:10:50.362Z,2.3
2019-05-30T21:12:49.555Z,2.3
2019-05-30T21:14:49.824Z,2.4
2019-05-30T21:16:50.073Z,2.4
2019-05-30T21:18:50.195Z,2.2
2019-05-30T21:20:49.494Z,2.5
2019-05-30T21:22:49.605Z,2.6
2019-05-30T21:24:49.675Z,2.8
2019-05-30T21:26:49.979Z,2.8
2019-05-30T21:28:50.041Z,2.3
2019-05-30T21:30:50.235Z,3.4
2019-05-30T21:32:50.353Z,3.4
2019-05-30T21:34:50.159Z,3.0
2019-05-30T21:36:49.766Z,3.0
2019-05-30T21:38:49.928Z,2.8
2019-05-30T21:40:50.088Z,3.0
2019-05-30T21:43:01.161Z,2.7
2019-05-30T21:44:52.606Z,2.7
2019-05-30T21:46:50.186Z,2.4
2019-05-30T21:48:50.286Z,2.3
2019-05-30T21:50:50.338Z,2.6
2019-05-30T21:52:50.361Z,2.8
2019-05-30T21:54:50.421Z,2.8
2019-05-30T21:56:50.287Z,2.6
2019-05-30T21:58:50.500Z,2.8
2019-05-30T22:00:50.827Z,2.9
2019-05-30T22:02:50.751Z,4.1
2019-05-30T22:04:50.474Z,4.1
2019-05-30T22:06:51.031Z,2.7
2019-05-30T22:08:51.158Z,3.1
2019-05-30T22:10:49.665Z,3.8
2019-05-30T22:12:49.801Z,3.0
2019-05-30T22:14:49.901Z,3.0
2019-05-30T22:16:50.329Z,3.0
2019-05-30T22:18:50.204Z,3.1
2019-05-30T22:20:50.304Z,3.1
2019-05-30T22:22:50.214Z,3.2
2019-05-30T22:24:50.455Z,3.2
2019-05-30T22:26:50.701Z,3.3
2019-05-30T22:28:50.488Z,4.3
2019-05-30T22:30:50.577Z,2.9
2019-05-30T22:32:50.753Z,2.9
2019-05-30T22:34:50.836Z,3.3
2019-05-30T22:36:50.946Z,2.9
2019-05-30T22:38:50.947Z,2.9
2019-05-30T22:40:50.110Z,3.4
2019-05-30T22:42:50.249Z,3.4
2019-05-30T22:44:50.326Z,3.7
2019-05-30T22:46:50.177Z,3.3
2019-05-30T22:48:50.492Z,3.2
2019-05-30T22:50:50.690Z,3.5
2019-05-30T22:52:50.873Z,3.5
2019-05-30T22:54:51.128Z,3.3
2019-05-30T22:56:51.429Z,3.0
2019-05-30T22:58:50.140Z,3.2
2019-05-30T23:00:49.988Z,3.5
2019-05-30T23:02:50.109Z,3.5
2019-05-30T23:04:50.086Z,3.3
2019-05-30T23:06:50.420Z,2.9
2019-05-30T23:08:50.461Z,3.3
2019-05-30T23:10:49.747Z,3.3
2019-05-30T23:12:49.791Z,3.2
2019-05-30T23:14:50.103Z,3.2
2019-05-30T23:16:50.552Z,3.5
2019-05-30T23:18:50.399Z,3.4
2019-05-30T23:20:50.394Z,3.3
2019-05-30T23:22:50.865Z,3.3
2019-05-30T23:24:52.033Z,3.2
2019-05-30T23:26:49.631Z,3.4
2019-05-30T23:28:49.758Z,3.3
2019-05-30T23:30:49.890Z,3.3
2019-05-30T23:32:50.404Z,3.2
2019-05-30T23:34:50.410Z,3.5
2019-05-30T23:36:50.480Z,4.0
2019-05-30T23:38:50.706Z,3.5
2019-05-30T23:40:50.946Z,3.5
2019-05-30T23:42:50.960Z,3.4
2019-05-30T23:44:50.960Z,3.2
2019-05-30T23:46:49.502Z,3.5
2019-05-30T23:48:49.654Z,3.7
2019-05-30T23:50:49.780Z,3.3
2019-05-30T23:52:50.061Z,3.3
2019-05-30T23:54:50.160Z,3.4
2019-05-30T23:56:50.559Z,3.8
2019-05-30T23:58:50.592Z,3.4
